<?xml version="1.0" encoding="utf-8"?>
<gpx xmlns:xsi="http://www.w3.org/2001/XMLSchema-instance" xmlns:xsd="http://www.w3.org/2001/XMLSchema" version="1.1" creator="Shapelink.com" xmlns="http://www.topografix.com/GPX/1/1" xmlns:gpxtpx="http://www.garmin.com/xmlschemas/TrackPointExtension/v1">
  <metadata>
    <name>Cykling 12.53 km, 2019-10-01</name>
    <desc></desc>
    <author><name>Henrik Staffas</name></author> 
    <time>2019-10-01T07:29:30Z</time>
  </metadata>
  <trk>
    <name>Cykling 12.53 km, 2019-10-01</name>
    <trkseg>
      <trkpt lat="59.421585572962" lon="17.966728965233">
        <ele>39</ele>
        <time>2019-10-01T07:29:30Z</time>
      </trkpt>
      <trkpt lat="59.421559337615" lon="17.966650007735">
        <ele>39.2</ele>
        <time>2019-10-01T07:29:34Z</time>
      </trkpt>
      <trkpt lat="59.421534778648" lon="17.966590747702">
        <ele>39.2</ele>
        <time>2019-10-01T07:29:36Z</time>
      </trkpt>
      <trkpt lat="59.421230599497" lon="17.965591206127">
        <ele>39</ele>
        <time>2019-10-01T07:29:49Z</time>
      </trkpt>
      <trkpt lat="59.421168741075" lon="17.96508720248">
        <ele>38.6</ele>
        <time>2019-10-01T07:29:54Z</time>
      </trkpt>
      <trkpt lat="59.421149462705" lon="17.964821831526">
        <ele>37.8</ele>
        <time>2019-10-01T07:29:56Z</time>
      </trkpt>
      <trkpt lat="59.421224313072" lon="17.964413381539">
        <ele>36.4</ele>
        <time>2019-10-01T07:29:59Z</time>
      </trkpt>
      <trkpt lat="59.42129405048" lon="17.964021192438">
        <ele>35.8</ele>
        <time>2019-10-01T07:30:02Z</time>
      </trkpt>
      <trkpt lat="59.421326153157" lon="17.963763113737">
        <ele>35.8</ele>
        <time>2019-10-01T07:30:04Z</time>
      </trkpt>
      <trkpt lat="59.421313999402" lon="17.963290626034">
        <ele>35.4</ele>
        <time>2019-10-01T07:30:08Z</time>
      </trkpt>
      <trkpt lat="59.421195479336" lon="17.962180108103">
        <ele>34.6</ele>
        <time>2019-10-01T07:30:18Z</time>
      </trkpt>
      <trkpt lat="59.42108198841" lon="17.961160701425">
        <ele>34.4</ele>
        <time>2019-10-01T07:30:26Z</time>
      </trkpt>
      <trkpt lat="59.421029014802" lon="17.960798603345">
        <ele>34</ele>
        <time>2019-10-01T07:30:29Z</time>
      </trkpt>
      <trkpt lat="59.420955337901" lon="17.960162417135">
        <ele>34.2</ele>
        <time>2019-10-01T07:30:33Z</time>
      </trkpt>
      <trkpt lat="59.420891384004" lon="17.959600578378">
        <ele>35.6</ele>
        <time>2019-10-01T07:30:38Z</time>
      </trkpt>
      <trkpt lat="59.42085483892" lon="17.959339314555">
        <ele>36.6</ele>
        <time>2019-10-01T07:30:41Z</time>
      </trkpt>
      <trkpt lat="59.420847630486" lon="17.959268906595">
        <ele>36.8</ele>
        <time>2019-10-01T07:30:42Z</time>
      </trkpt>
      <trkpt lat="59.420780407648" lon="17.958976294466">
        <ele>37.8</ele>
        <time>2019-10-01T07:30:45Z</time>
      </trkpt>
      <trkpt lat="59.420650655836" lon="17.958841094419">
        <ele>38.2</ele>
        <time>2019-10-01T07:30:49Z</time>
      </trkpt>
      <trkpt lat="59.420566250103" lon="17.958862049169">
        <ele>38</ele>
        <time>2019-10-01T07:30:51Z</time>
      </trkpt>
      <trkpt lat="59.42024631298" lon="17.959185841966">
        <ele>38</ele>
        <time>2019-10-01T07:30:57Z</time>
      </trkpt>
      <trkpt lat="59.419684055128" lon="17.959409471058">
        <ele>38</ele>
        <time>2019-10-01T07:31:04Z</time>
      </trkpt>
      <trkpt lat="59.419080055414" lon="17.959557579231">
        <ele>37</ele>
        <time>2019-10-01T07:31:12Z</time>
      </trkpt>
      <trkpt lat="59.418504805617" lon="17.95979151806">
        <ele>37.6</ele>
        <time>2019-10-01T07:31:21Z</time>
      </trkpt>
      <trkpt lat="59.417935171693" lon="17.959950941798">
        <ele>37.4</ele>
        <time>2019-10-01T07:31:29Z</time>
      </trkpt>
      <trkpt lat="59.417388252718" lon="17.960193430165">
        <ele>38.4</ele>
        <time>2019-10-01T07:31:37Z</time>
      </trkpt>
      <trkpt lat="59.417204940565" lon="17.960288983825">
        <ele>39</ele>
        <time>2019-10-01T07:31:40Z</time>
      </trkpt>
      <trkpt lat="59.416787857221" lon="17.960651417181">
        <ele>40</ele>
        <time>2019-10-01T07:31:47Z</time>
      </trkpt>
      <trkpt lat="59.416488791029" lon="17.960931121184">
        <ele>41</ele>
        <time>2019-10-01T07:31:52Z</time>
      </trkpt>
      <trkpt lat="59.416044885605" lon="17.961356334971">
        <ele>42.2</ele>
        <time>2019-10-01T07:32:00Z</time>
      </trkpt>
      <trkpt lat="59.41574690906" lon="17.961686330374">
        <ele>43.4</ele>
        <time>2019-10-01T07:32:06Z</time>
      </trkpt>
      <trkpt lat="59.415602321285" lon="17.961901409928">
        <ele>44.2</ele>
        <time>2019-10-01T07:32:09Z</time>
      </trkpt>
      <trkpt lat="59.415554544455" lon="17.961973661906">
        <ele>44.4</ele>
        <time>2019-10-01T07:32:10Z</time>
      </trkpt>
      <trkpt lat="59.41542001496" lon="17.962207014002">
        <ele>45.6</ele>
        <time>2019-10-01T07:32:13Z</time>
      </trkpt>
      <trkpt lat="59.414996393734" lon="17.963016789361">
        <ele>45.6</ele>
        <time>2019-10-01T07:32:23Z</time>
      </trkpt>
      <trkpt lat="59.414733872626" lon="17.963716091278">
        <ele>46.4</ele>
        <time>2019-10-01T07:32:31Z</time>
      </trkpt>
      <trkpt lat="59.414706212356" lon="17.96381734463">
        <ele>46.6</ele>
        <time>2019-10-01T07:32:32Z</time>
      </trkpt>
      <trkpt lat="59.414549470826" lon="17.964399216128">
        <ele>47.6</ele>
        <time>2019-10-01T07:32:38Z</time>
      </trkpt>
      <trkpt lat="59.41442256886" lon="17.96489609516">
        <ele>48.6</ele>
        <time>2019-10-01T07:32:44Z</time>
      </trkpt>
      <trkpt lat="59.414322153698" lon="17.965275711411">
        <ele>49.8</ele>
        <time>2019-10-01T07:32:49Z</time>
      </trkpt>
      <trkpt lat="59.414267252253" lon="17.965567066255">
        <ele>50.8</ele>
        <time>2019-10-01T07:32:53Z</time>
      </trkpt>
      <trkpt lat="59.414164238702" lon="17.96588767393">
        <ele>51.8</ele>
        <time>2019-10-01T07:32:57Z</time>
      </trkpt>
      <trkpt lat="59.414058962038" lon="17.966212556374">
        <ele>53</ele>
        <time>2019-10-01T07:33:01Z</time>
      </trkpt>
      <trkpt lat="59.413987883526" lon="17.966441130787">
        <ele>54</ele>
        <time>2019-10-01T07:33:04Z</time>
      </trkpt>
      <trkpt lat="59.413913955168" lon="17.966654366323">
        <ele>54.8</ele>
        <time>2019-10-01T07:33:07Z</time>
      </trkpt>
      <trkpt lat="59.413890737305" lon="17.966723265541">
        <ele>55</ele>
        <time>2019-10-01T07:33:08Z</time>
      </trkpt>
      <trkpt lat="59.413831058177" lon="17.96685578338">
        <ele>55.6</ele>
        <time>2019-10-01T07:33:10Z</time>
      </trkpt>
      <trkpt lat="59.413750675756" lon="17.96704353794">
        <ele>56.4</ele>
        <time>2019-10-01T07:33:13Z</time>
      </trkpt>
      <trkpt lat="59.413602902859" lon="17.967347549453">
        <ele>57.6</ele>
        <time>2019-10-01T07:33:19Z</time>
      </trkpt>
      <trkpt lat="59.413466529346" lon="17.967514097806">
        <ele>58.8</ele>
        <time>2019-10-01T07:33:23Z</time>
      </trkpt>
      <trkpt lat="59.41330023245" lon="17.967662792712">
        <ele>59.8</ele>
        <time>2019-10-01T07:33:27Z</time>
      </trkpt>
      <trkpt lat="59.412964704993" lon="17.967930426779">
        <ele>61</ele>
        <time>2019-10-01T07:33:35Z</time>
      </trkpt>
      <trkpt lat="59.412706374835" lon="17.96805104232">
        <ele>62.2</ele>
        <time>2019-10-01T07:33:41Z</time>
      </trkpt>
      <trkpt lat="59.412429688316" lon="17.968131676198">
        <ele>63.2</ele>
        <time>2019-10-01T07:33:47Z</time>
      </trkpt>
      <trkpt lat="59.412021908881" lon="17.968097645684">
        <ele>63.2</ele>
        <time>2019-10-01T07:33:55Z</time>
      </trkpt>
      <trkpt lat="59.411860808763" lon="17.968097729503">
        <ele>63.8</ele>
        <time>2019-10-01T07:33:58Z</time>
      </trkpt>
      <trkpt lat="59.411756370289" lon="17.968145841609">
        <ele>64.2</ele>
        <time>2019-10-01T07:34:00Z</time>
      </trkpt>
      <trkpt lat="59.411234177919" lon="17.968331752151">
        <ele>63.2</ele>
        <time>2019-10-01T07:34:09Z</time>
      </trkpt>
      <trkpt lat="59.410901416489" lon="17.968639703157">
        <ele>62.2</ele>
        <time>2019-10-01T07:34:14Z</time>
      </trkpt>
      <trkpt lat="59.410685163469" lon="17.968961065203">
        <ele>62.4</ele>
        <time>2019-10-01T07:34:18Z</time>
      </trkpt>
      <trkpt lat="59.410303451743" lon="17.969893132483">
        <ele>61.4</ele>
        <time>2019-10-01T07:34:26Z</time>
      </trkpt>
      <trkpt lat="59.410247293013" lon="17.970032942575">
        <ele>61</ele>
        <time>2019-10-01T07:34:27Z</time>
      </trkpt>
      <trkpt lat="59.410042774653" lon="17.970597547359">
        <ele>60</ele>
        <time>2019-10-01T07:34:31Z</time>
      </trkpt>
      <trkpt lat="59.409914363945" lon="17.970995352333">
        <ele>58.8</ele>
        <time>2019-10-01T07:34:34Z</time>
      </trkpt>
      <trkpt lat="59.409628624974" lon="17.971742347261">
        <ele>57.6</ele>
        <time>2019-10-01T07:34:40Z</time>
      </trkpt>
      <trkpt lat="59.409269795835" lon="17.972555223923">
        <ele>56.6</ele>
        <time>2019-10-01T07:34:47Z</time>
      </trkpt>
      <trkpt lat="59.408992522583" lon="17.973120080164">
        <ele>55.6</ele>
        <time>2019-10-01T07:34:52Z</time>
      </trkpt>
      <trkpt lat="59.40893912988" lon="17.973233151995">
        <ele>55.4</ele>
        <time>2019-10-01T07:34:53Z</time>
      </trkpt>
      <trkpt lat="59.408773754993" lon="17.97355627424">
        <ele>54.2</ele>
        <time>2019-10-01T07:34:56Z</time>
      </trkpt>
      <trkpt lat="59.408412662741" lon="17.974234789045">
        <ele>53.2</ele>
        <time>2019-10-01T07:35:02Z</time>
      </trkpt>
      <trkpt lat="59.407953502259" lon="17.974773745215">
        <ele>53.2</ele>
        <time>2019-10-01T07:35:09Z</time>
      </trkpt>
      <trkpt lat="59.407370960209" lon="17.975094939623">
        <ele>52.6</ele>
        <time>2019-10-01T07:35:17Z</time>
      </trkpt>
      <trkpt lat="59.407167112401" lon="17.975182195202">
        <ele>52.2</ele>
        <time>2019-10-01T07:35:20Z</time>
      </trkpt>
      <trkpt lat="59.406899645972" lon="17.975232989516">
        <ele>51.2</ele>
        <time>2019-10-01T07:35:24Z</time>
      </trkpt>
      <trkpt lat="59.406774252748" lon="17.975312952842">
        <ele>50.8</ele>
        <time>2019-10-01T07:35:26Z</time>
      </trkpt>
      <trkpt lat="59.406540062462" lon="17.975514872813">
        <ele>50</ele>
        <time>2019-10-01T07:35:29Z</time>
      </trkpt>
      <trkpt lat="59.406382734199" lon="17.975682343175">
        <ele>49</ele>
        <time>2019-10-01T07:35:31Z</time>
      </trkpt>
      <trkpt lat="59.406312996791" lon="17.975791475513">
        <ele>48.4</ele>
        <time>2019-10-01T07:35:32Z</time>
      </trkpt>
      <trkpt lat="59.406181149504" lon="17.976028180369">
        <ele>47.6</ele>
        <time>2019-10-01T07:35:34Z</time>
      </trkpt>
      <trkpt lat="59.405997166799" lon="17.976400169091">
        <ele>46.6</ele>
        <time>2019-10-01T07:35:37Z</time>
      </trkpt>
      <trkpt lat="59.405836401957" lon="17.976755226375">
        <ele>45.6</ele>
        <time>2019-10-01T07:35:40Z</time>
      </trkpt>
      <trkpt lat="59.405718468624" lon="17.976904759471">
        <ele>45.2</ele>
        <time>2019-10-01T07:35:42Z</time>
      </trkpt>
      <trkpt lat="59.405594584142" lon="17.976938706166">
        <ele>45</ele>
        <time>2019-10-01T07:35:44Z</time>
      </trkpt>
      <trkpt lat="59.405484865071" lon="17.976850109483">
        <ele>44.8</ele>
        <time>2019-10-01T07:35:46Z</time>
      </trkpt>
      <trkpt lat="59.405361651141" lon="17.976688087356">
        <ele>44.6</ele>
        <time>2019-10-01T07:35:48Z</time>
      </trkpt>
      <trkpt lat="59.405285962584" lon="17.97662153507">
        <ele>44.4</ele>
        <time>2019-10-01T07:35:49Z</time>
      </trkpt>
      <trkpt lat="59.405152019822" lon="17.976509720524">
        <ele>44</ele>
        <time>2019-10-01T07:35:51Z</time>
      </trkpt>
      <trkpt lat="59.405043558036" lon="17.976314422254">
        <ele>43.6</ele>
        <time>2019-10-01T07:35:53Z</time>
      </trkpt>
      <trkpt lat="59.404940460666" lon="17.976053996621">
        <ele>43</ele>
        <time>2019-10-01T07:35:55Z</time>
      </trkpt>
      <trkpt lat="59.404606190494" lon="17.975171382551">
        <ele>42</ele>
        <time>2019-10-01T07:36:01Z</time>
      </trkpt>
      <trkpt lat="59.404445677109" lon="17.974941047939">
        <ele>42</ele>
        <time>2019-10-01T07:36:03Z</time>
      </trkpt>
      <trkpt lat="59.404266304449" lon="17.974769638084">
        <ele>42.2</ele>
        <time>2019-10-01T07:36:05Z</time>
      </trkpt>
      <trkpt lat="59.404006046454" lon="17.974600156066">
        <ele>43</ele>
        <time>2019-10-01T07:36:08Z</time>
      </trkpt>
      <trkpt lat="59.403538420253" lon="17.974357835337">
        <ele>44.2</ele>
        <time>2019-10-01T07:36:14Z</time>
      </trkpt>
      <trkpt lat="59.40338612113" lon="17.974260856754">
        <ele>44</ele>
        <time>2019-10-01T07:36:16Z</time>
      </trkpt>
      <trkpt lat="59.40309778377" lon="17.9739871039">
        <ele>44.4</ele>
        <time>2019-10-01T07:36:20Z</time>
      </trkpt>
      <trkpt lat="59.402966858492" lon="17.973970004824">
        <ele>44.8</ele>
        <time>2019-10-01T07:36:22Z</time>
      </trkpt>
      <trkpt lat="59.40284632677" lon="17.974071509633">
        <ele>45</ele>
        <time>2019-10-01T07:36:24Z</time>
      </trkpt>
      <trkpt lat="59.40279435899" lon="17.974154322805">
        <ele>45.2</ele>
        <time>2019-10-01T07:36:25Z</time>
      </trkpt>
      <trkpt lat="59.402749432006" lon="17.974259096555">
        <ele>45.4</ele>
        <time>2019-10-01T07:36:26Z</time>
      </trkpt>
      <trkpt lat="59.40269964352" lon="17.97437099492">
        <ele>45.6</ele>
        <time>2019-10-01T07:36:27Z</time>
      </trkpt>
      <trkpt lat="59.402599563634" lon="17.974609962889">
        <ele>46.2</ele>
        <time>2019-10-01T07:36:29Z</time>
      </trkpt>
      <trkpt lat="59.402245009264" lon="17.97542376156">
        <ele>46.2</ele>
        <time>2019-10-01T07:36:36Z</time>
      </trkpt>
      <trkpt lat="59.402070581925" lon="17.975788290391">
        <ele>45.2</ele>
        <time>2019-10-01T07:36:39Z</time>
      </trkpt>
      <trkpt lat="59.401721391971" lon="17.976515001121">
        <ele>44.2</ele>
        <time>2019-10-01T07:36:45Z</time>
      </trkpt>
      <trkpt lat="59.4013350702" lon="17.977339528624">
        <ele>43.8</ele>
        <time>2019-10-01T07:36:51Z</time>
      </trkpt>
      <trkpt lat="59.400948413153" lon="17.978150896544">
        <ele>43.8</ele>
        <time>2019-10-01T07:36:58Z</time>
      </trkpt>
      <trkpt lat="59.400741547861" lon="17.978640483323">
        <ele>42.8</ele>
        <time>2019-10-01T07:37:02Z</time>
      </trkpt>
      <trkpt lat="59.400351454235" lon="17.979484875929">
        <ele>42.4</ele>
        <time>2019-10-01T07:37:09Z</time>
      </trkpt>
      <trkpt lat="59.399938310384" lon="17.980305547758">
        <ele>42.4</ele>
        <time>2019-10-01T07:37:16Z</time>
      </trkpt>
      <trkpt lat="59.399576044666" lon="17.981145078862">
        <ele>42.4</ele>
        <time>2019-10-01T07:37:23Z</time>
      </trkpt>
      <trkpt lat="59.399521729954" lon="17.981273154294">
        <ele>42.2</ele>
        <time>2019-10-01T07:37:24Z</time>
      </trkpt>
      <trkpt lat="59.399285779469" lon="17.981744803807">
        <ele>41.4</ele>
        <time>2019-10-01T07:37:28Z</time>
      </trkpt>
      <trkpt lat="59.399003057982" lon="17.982296249008">
        <ele>40.8</ele>
        <time>2019-10-01T07:37:33Z</time>
      </trkpt>
      <trkpt lat="59.398755540475" lon="17.982619203615">
        <ele>40.4</ele>
        <time>2019-10-01T07:37:37Z</time>
      </trkpt>
      <trkpt lat="59.398499808706" lon="17.982968225931">
        <ele>40</ele>
        <time>2019-10-01T07:37:41Z</time>
      </trkpt>
      <trkpt lat="59.398166292905" lon="17.983388494397">
        <ele>40.4</ele>
        <time>2019-10-01T07:37:46Z</time>
      </trkpt>
      <trkpt lat="59.397826993593" lon="17.983868358172">
        <ele>39.6</ele>
        <time>2019-10-01T07:37:51Z</time>
      </trkpt>
      <trkpt lat="59.397749544837" lon="17.983945974566">
        <ele>39.4</ele>
        <time>2019-10-01T07:37:52Z</time>
      </trkpt>
      <trkpt lat="59.397446958247" lon="17.984250908088">
        <ele>38.2</ele>
        <time>2019-10-01T07:37:56Z</time>
      </trkpt>
      <trkpt lat="59.396936668175" lon="17.984770334431">
        <ele>37.8</ele>
        <time>2019-10-01T07:38:03Z</time>
      </trkpt>
      <trkpt lat="59.396726114847" lon="17.98499840593">
        <ele>37</ele>
        <time>2019-10-01T07:38:06Z</time>
      </trkpt>
      <trkpt lat="59.396203503382" lon="17.985528644924">
        <ele>36.6</ele>
        <time>2019-10-01T07:38:13Z</time>
      </trkpt>
      <trkpt lat="59.395701427572" lon="17.985975903108">
        <ele>37</ele>
        <time>2019-10-01T07:38:20Z</time>
      </trkpt>
      <trkpt lat="59.395174038424" lon="17.98629508586">
        <ele>36.6</ele>
        <time>2019-10-01T07:38:27Z</time>
      </trkpt>
      <trkpt lat="59.394791907603" lon="17.986526677757">
        <ele>35.8</ele>
        <time>2019-10-01T07:38:32Z</time>
      </trkpt>
      <trkpt lat="59.394267116844" lon="17.986837227152">
        <ele>35.2</ele>
        <time>2019-10-01T07:38:39Z</time>
      </trkpt>
      <trkpt lat="59.394048013978" lon="17.98696479967">
        <ele>34.6</ele>
        <time>2019-10-01T07:38:42Z</time>
      </trkpt>
      <trkpt lat="59.393546105806" lon="17.987263782043">
        <ele>33.6</ele>
        <time>2019-10-01T07:38:48Z</time>
      </trkpt>
      <trkpt lat="59.392985608153" lon="17.987574750533">
        <ele>32.8</ele>
        <time>2019-10-01T07:38:55Z</time>
      </trkpt>
      <trkpt lat="59.392904638999" lon="17.987640548448">
        <ele>32.8</ele>
        <time>2019-10-01T07:38:56Z</time>
      </trkpt>
      <trkpt lat="59.392561400194" lon="17.988099038378">
        <ele>32.4</ele>
        <time>2019-10-01T07:39:01Z</time>
      </trkpt>
      <trkpt lat="59.392391247624" lon="17.988460801182">
        <ele>32</ele>
        <time>2019-10-01T07:39:04Z</time>
      </trkpt>
      <trkpt lat="59.39225914888" lon="17.988895402697">
        <ele>31.4</ele>
        <time>2019-10-01T07:39:07Z</time>
      </trkpt>
      <trkpt lat="59.392027556983" lon="17.989976583978">
        <ele>30.6</ele>
        <time>2019-10-01T07:39:14Z</time>
      </trkpt>
      <trkpt lat="59.391986485673" lon="17.990130224205">
        <ele>30.2</ele>
        <time>2019-10-01T07:39:15Z</time>
      </trkpt>
      <trkpt lat="59.391773166318" lon="17.990864478645">
        <ele>29</ele>
        <time>2019-10-01T07:39:20Z</time>
      </trkpt>
      <trkpt lat="59.391643749782" lon="17.991314921951">
        <ele>28</ele>
        <time>2019-10-01T07:39:23Z</time>
      </trkpt>
      <trkpt lat="59.391505029337" lon="17.991775255899">
        <ele>27</ele>
        <time>2019-10-01T07:39:26Z</time>
      </trkpt>
      <trkpt lat="59.39131953789" lon="17.992415130145">
        <ele>25.6</ele>
        <time>2019-10-01T07:39:30Z</time>
      </trkpt>
      <trkpt lat="59.391012425074" lon="17.993364547958">
        <ele>24.6</ele>
        <time>2019-10-01T07:39:36Z</time>
      </trkpt>
      <trkpt lat="59.390963223321" lon="17.993524893705">
        <ele>24.6</ele>
        <time>2019-10-01T07:39:37Z</time>
      </trkpt>
      <trkpt lat="59.390657283971" lon="17.994449165818">
        <ele>23.6</ele>
        <time>2019-10-01T07:39:43Z</time>
      </trkpt>
      <trkpt lat="59.390328713491" lon="17.995485168658">
        <ele>23.8</ele>
        <time>2019-10-01T07:39:50Z</time>
      </trkpt>
      <trkpt lat="59.390234584754" lon="17.995774260389">
        <ele>23.2</ele>
        <time>2019-10-01T07:39:52Z</time>
      </trkpt>
      <trkpt lat="59.390139869284" lon="17.996052120374">
        <ele>22</ele>
        <time>2019-10-01T07:39:54Z</time>
      </trkpt>
      <trkpt lat="59.390037610104" lon="17.996307349229">
        <ele>21.4</ele>
        <time>2019-10-01T07:39:56Z</time>
      </trkpt>
      <trkpt lat="59.389919844409" lon="17.996504323879">
        <ele>21.6</ele>
        <time>2019-10-01T07:39:58Z</time>
      </trkpt>
      <trkpt lat="59.389685989399" lon="17.996763743684">
        <ele>23</ele>
        <time>2019-10-01T07:40:02Z</time>
      </trkpt>
      <trkpt lat="59.389632848153" lon="17.996820656785">
        <ele>23.4</ele>
        <time>2019-10-01T07:40:03Z</time>
      </trkpt>
      <trkpt lat="59.389512316431" lon="17.996979158514">
        <ele>24.2</ele>
        <time>2019-10-01T07:40:06Z</time>
      </trkpt>
      <trkpt lat="59.389242167794" lon="17.997459189927">
        <ele>26</ele>
        <time>2019-10-01T07:40:14Z</time>
      </trkpt>
      <trkpt lat="59.389200342113" lon="17.997526328946">
        <ele>26.2</ele>
        <time>2019-10-01T07:40:15Z</time>
      </trkpt>
      <trkpt lat="59.389049551732" lon="17.997725566709">
        <ele>27.6</ele>
        <time>2019-10-01T07:40:19Z</time>
      </trkpt>
      <trkpt lat="59.388924996698" lon="17.997841739843">
        <ele>29</ele>
        <time>2019-10-01T07:40:23Z</time>
      </trkpt>
      <trkpt lat="59.388847380304" lon="17.997963445031">
        <ele>30.4</ele>
        <time>2019-10-01T07:40:26Z</time>
      </trkpt>
      <trkpt lat="59.388768255168" lon="17.998051790257">
        <ele>31.4</ele>
        <time>2019-10-01T07:40:29Z</time>
      </trkpt>
      <trkpt lat="59.388689130032" lon="17.998140638397">
        <ele>32.6</ele>
        <time>2019-10-01T07:40:32Z</time>
      </trkpt>
      <trkpt lat="59.38852417424" lon="17.998351107906">
        <ele>33.6</ele>
        <time>2019-10-01T07:40:37Z</time>
      </trkpt>
      <trkpt lat="59.388142965428" lon="17.9989400202">
        <ele>32.2</ele>
        <time>2019-10-01T07:40:49Z</time>
      </trkpt>
      <trkpt lat="59.388030815606" lon="17.998968602479">
        <ele>31.2</ele>
        <time>2019-10-01T07:40:51Z</time>
      </trkpt>
      <trkpt lat="59.387944482036" lon="17.998917640527">
        <ele>30.4</ele>
        <time>2019-10-01T07:40:53Z</time>
      </trkpt>
      <trkpt lat="59.387679027263" lon="17.998210208167">
        <ele>32.2</ele>
        <time>2019-10-01T07:41:06Z</time>
      </trkpt>
      <trkpt lat="59.387625383103" lon="17.998128065547">
        <ele>32.2</ele>
        <time>2019-10-01T07:41:07Z</time>
      </trkpt>
      <trkpt lat="59.387497307671" lon="17.998027985661">
        <ele>32.2</ele>
        <time>2019-10-01T07:41:09Z</time>
      </trkpt>
      <trkpt lat="59.386905796988" lon="17.998022705064">
        <ele>32.6</ele>
        <time>2019-10-01T07:41:17Z</time>
      </trkpt>
      <trkpt lat="59.386516373914" lon="17.998056819397">
        <ele>31</ele>
        <time>2019-10-01T07:41:22Z</time>
      </trkpt>
      <trkpt lat="59.386126447926" lon="17.998110966471">
        <ele>30</ele>
        <time>2019-10-01T07:41:27Z</time>
      </trkpt>
      <trkpt lat="59.385772647927" lon="17.998071487722">
        <ele>28.2</ele>
        <time>2019-10-01T07:41:31Z</time>
      </trkpt>
      <trkpt lat="59.385608446506" lon="17.998080791631">
        <ele>26.8</ele>
        <time>2019-10-01T07:41:33Z</time>
      </trkpt>
      <trkpt lat="59.385026658827" lon="17.998185230105">
        <ele>26.6</ele>
        <time>2019-10-01T07:41:39Z</time>
      </trkpt>
      <trkpt lat="59.384564313223" lon="17.998212052185">
        <ele>25.6</ele>
        <time>2019-10-01T07:41:44Z</time>
      </trkpt>
      <trkpt lat="59.383994427842" lon="17.998177183481">
        <ele>25</ele>
        <time>2019-10-01T07:41:50Z</time>
      </trkpt>
      <trkpt lat="59.383905663521" lon="17.998210627262">
        <ele>24.6</ele>
        <time>2019-10-01T07:41:51Z</time>
      </trkpt>
      <trkpt lat="59.383822682711" lon="17.998261673033">
        <ele>24.2</ele>
        <time>2019-10-01T07:41:52Z</time>
      </trkpt>
      <trkpt lat="59.383711538717" lon="17.99825857173">
        <ele>23.8</ele>
        <time>2019-10-01T07:41:53Z</time>
      </trkpt>
      <trkpt lat="59.383543397803" lon="17.998384635506">
        <ele>22.8</ele>
        <time>2019-10-01T07:41:55Z</time>
      </trkpt>
      <trkpt lat="59.383391685413" lon="17.998554285162">
        <ele>21.8</ele>
        <time>2019-10-01T07:41:57Z</time>
      </trkpt>
      <trkpt lat="59.38306923372" lon="17.999012272178">
        <ele>21.8</ele>
        <time>2019-10-01T07:42:02Z</time>
      </trkpt>
      <trkpt lat="59.382976613725" lon="17.999240008401">
        <ele>21.8</ele>
        <time>2019-10-01T07:42:04Z</time>
      </trkpt>
      <trkpt lat="59.382820039833" lon="17.999768571015">
        <ele>22.2</ele>
        <time>2019-10-01T07:42:08Z</time>
      </trkpt>
      <trkpt lat="59.38270126831" lon="17.99993411354">
        <ele>22.4</ele>
        <time>2019-10-01T07:42:10Z</time>
      </trkpt>
      <trkpt lat="59.382171951325" lon="18.000536855969">
        <ele>21.2</ele>
        <time>2019-10-01T07:42:18Z</time>
      </trkpt>
      <trkpt lat="59.381777080016" lon="18.00106567004">
        <ele>20.6</ele>
        <time>2019-10-01T07:42:24Z</time>
      </trkpt>
      <trkpt lat="59.381382208707" lon="18.001514856061">
        <ele>20.4</ele>
        <time>2019-10-01T07:42:31Z</time>
      </trkpt>
      <trkpt lat="59.381240386959" lon="18.001533547698">
        <ele>20.6</ele>
        <time>2019-10-01T07:42:33Z</time>
      </trkpt>
      <trkpt lat="59.38067201032" lon="18.001311092072">
        <ele>21.8</ele>
        <time>2019-10-01T07:42:42Z</time>
      </trkpt>
      <trkpt lat="59.380398257466" lon="18.001305224742">
        <ele>23</ele>
        <time>2019-10-01T07:42:46Z</time>
      </trkpt>
      <trkpt lat="59.380252496225" lon="18.001329783709">
        <ele>23.8</ele>
        <time>2019-10-01T07:42:48Z</time>
      </trkpt>
      <trkpt lat="59.380196924228" lon="18.001341853645">
        <ele>24.4</ele>
        <time>2019-10-01T07:42:49Z</time>
      </trkpt>
      <trkpt lat="59.379882686797" lon="18.001535224078">
        <ele>25.4</ele>
        <time>2019-10-01T07:42:55Z</time>
      </trkpt>
      <trkpt lat="59.379375414209" lon="18.001921713487">
        <ele>25.6</ele>
        <time>2019-10-01T07:43:04Z</time>
      </trkpt>
      <trkpt lat="59.379040976399" lon="18.002209296476">
        <ele>26.6</ele>
        <time>2019-10-01T07:43:10Z</time>
      </trkpt>
      <trkpt lat="59.378751046478" lon="18.002411467904">
        <ele>27.6</ele>
        <time>2019-10-01T07:43:16Z</time>
      </trkpt>
      <trkpt lat="59.378457009426" lon="18.002609196925">
        <ele>28.8</ele>
        <time>2019-10-01T07:43:22Z</time>
      </trkpt>
      <trkpt lat="59.377958956928" lon="18.002989399909">
        <ele>29.2</ele>
        <time>2019-10-01T07:43:32Z</time>
      </trkpt>
      <trkpt lat="59.377799700828" lon="18.003203725092">
        <ele>28.4</ele>
        <time>2019-10-01T07:43:35Z</time>
      </trkpt>
      <trkpt lat="59.377658801089" lon="18.003290980671">
        <ele>28.2</ele>
        <time>2019-10-01T07:43:37Z</time>
      </trkpt>
      <trkpt lat="59.377514045676" lon="18.003350492161">
        <ele>28.4</ele>
        <time>2019-10-01T07:43:39Z</time>
      </trkpt>
      <trkpt lat="59.377166113007" lon="18.00367495551">
        <ele>27.4</ele>
        <time>2019-10-01T07:43:44Z</time>
      </trkpt>
      <trkpt lat="59.377001492491" lon="18.003805964607">
        <ele>26</ele>
        <time>2019-10-01T07:43:46Z</time>
      </trkpt>
      <trkpt lat="59.376836201423" lon="18.003910319262">
        <ele>24.8</ele>
        <time>2019-10-01T07:43:48Z</time>
      </trkpt>
      <trkpt lat="59.376655487659" lon="18.004107042455">
        <ele>23.4</ele>
        <time>2019-10-01T07:43:50Z</time>
      </trkpt>
      <trkpt lat="59.376560939827" lon="18.004173091827">
        <ele>22.8</ele>
        <time>2019-10-01T07:43:51Z</time>
      </trkpt>
      <trkpt lat="59.376472175506" lon="18.004234195878">
        <ele>22.2</ele>
        <time>2019-10-01T07:43:52Z</time>
      </trkpt>
      <trkpt lat="59.376300178918" lon="18.004329078986">
        <ele>21.2</ele>
        <time>2019-10-01T07:43:54Z</time>
      </trkpt>
      <trkpt lat="59.376030868471" lon="18.004418346221">
        <ele>20</ele>
        <time>2019-10-01T07:43:57Z</time>
      </trkpt>
      <trkpt lat="59.37545679214" lon="18.004765105424">
        <ele>19.2</ele>
        <time>2019-10-01T07:44:04Z</time>
      </trkpt>
      <trkpt lat="59.375206592425" lon="18.004960068418">
        <ele>19</ele>
        <time>2019-10-01T07:44:07Z</time>
      </trkpt>
      <trkpt lat="59.374633521922" lon="18.005438842546">
        <ele>18</ele>
        <time>2019-10-01T07:44:14Z</time>
      </trkpt>
      <trkpt lat="59.374552720406" lon="18.005507322669">
        <ele>17.8</ele>
        <time>2019-10-01T07:44:15Z</time>
      </trkpt>
      <trkpt lat="59.373990127278" lon="18.005963381848">
        <ele>16.8</ele>
        <time>2019-10-01T07:44:22Z</time>
      </trkpt>
      <trkpt lat="59.373909409581" lon="18.00603446036">
        <ele>16.8</ele>
        <time>2019-10-01T07:44:23Z</time>
      </trkpt>
      <trkpt lat="59.373591651752" lon="18.006276194356">
        <ele>16.6</ele>
        <time>2019-10-01T07:44:27Z</time>
      </trkpt>
      <trkpt lat="59.37306878883" lon="18.006750609896">
        <ele>17.6</ele>
        <time>2019-10-01T07:44:34Z</time>
      </trkpt>
      <trkpt lat="59.372920261562" lon="18.00687013579">
        <ele>17.4</ele>
        <time>2019-10-01T07:44:36Z</time>
      </trkpt>
      <trkpt lat="59.37278296604" lon="18.006985638372">
        <ele>17.6</ele>
        <time>2019-10-01T07:44:38Z</time>
      </trkpt>
      <trkpt lat="59.372513404136" lon="18.007158137874">
        <ele>18.8</ele>
        <time>2019-10-01T07:44:42Z</time>
      </trkpt>
      <trkpt lat="59.371972352491" lon="18.007600283099">
        <ele>19.4</ele>
        <time>2019-10-01T07:44:50Z</time>
      </trkpt>
      <trkpt lat="59.371402215653" lon="18.007924662629">
        <ele>18</ele>
        <time>2019-10-01T07:44:58Z</time>
      </trkpt>
      <trkpt lat="59.371024862515" lon="18.008055168812">
        <ele>20</ele>
        <time>2019-10-01T07:45:03Z</time>
      </trkpt>
      <trkpt lat="59.370888572821" lon="18.008112165732">
        <ele>21.4</ele>
        <time>2019-10-01T07:45:05Z</time>
      </trkpt>
      <trkpt lat="59.370293625559" lon="18.008221717165">
        <ele>21.8</ele>
        <time>2019-10-01T07:45:14Z</time>
      </trkpt>
      <trkpt lat="59.369768918619" lon="18.008476024011">
        <ele>21.4</ele>
        <time>2019-10-01T07:45:22Z</time>
      </trkpt>
      <trkpt lat="59.369227028784" lon="18.008721446043">
        <ele>22.8</ele>
        <time>2019-10-01T07:45:31Z</time>
      </trkpt>
      <trkpt lat="59.369111861478" lon="18.008799732989">
        <ele>24.4</ele>
        <time>2019-10-01T07:45:33Z</time>
      </trkpt>
      <trkpt lat="59.368781866075" lon="18.00922042055">
        <ele>23.2</ele>
        <time>2019-10-01T07:45:40Z</time>
      </trkpt>
      <trkpt lat="59.368565864512" lon="18.009711264614">
        <ele>22.4</ele>
        <time>2019-10-01T07:45:46Z</time>
      </trkpt>
      <trkpt lat="59.368502664986" lon="18.009847721946">
        <ele>22.6</ele>
        <time>2019-10-01T07:45:48Z</time>
      </trkpt>
      <trkpt lat="59.368436699433" lon="18.009992309721">
        <ele>22.6</ele>
        <time>2019-10-01T07:45:50Z</time>
      </trkpt>
      <trkpt lat="59.36831289877" lon="18.010483153785">
        <ele>22.6</ele>
        <time>2019-10-01T07:45:55Z</time>
      </trkpt>
      <trkpt lat="59.368110559704" lon="18.011149263378">
        <ele>22.4</ele>
        <time>2019-10-01T07:46:03Z</time>
      </trkpt>
      <trkpt lat="59.367669755583" lon="18.011863904172">
        <ele>24</ele>
        <time>2019-10-01T07:46:10Z</time>
      </trkpt>
      <trkpt lat="59.367612674844" lon="18.011936826702">
        <ele>24.4</ele>
        <time>2019-10-01T07:46:11Z</time>
      </trkpt>
      <trkpt lat="59.367509409836" lon="18.012071356197">
        <ele>25.6</ele>
        <time>2019-10-01T07:46:13Z</time>
      </trkpt>
      <trkpt lat="59.367109174111" lon="18.012408476215">
        <ele>25.8</ele>
        <time>2019-10-01T07:46:23Z</time>
      </trkpt>
      <trkpt lat="59.36701705703" lon="18.012595224947">
        <ele>25.8</ele>
        <time>2019-10-01T07:46:26Z</time>
      </trkpt>
      <trkpt lat="59.366804659684" lon="18.012855566761">
        <ele>26.8</ele>
        <time>2019-10-01T07:46:32Z</time>
      </trkpt>
      <trkpt lat="59.366335692379" lon="18.013488316392">
        <ele>27.4</ele>
        <time>2019-10-01T07:46:43Z</time>
      </trkpt>
      <trkpt lat="59.366165288352" lon="18.013730553302">
        <ele>27.8</ele>
        <time>2019-10-01T07:46:47Z</time>
      </trkpt>
      <trkpt lat="59.36572792081" lon="18.014333798645">
        <ele>28.2</ele>
        <time>2019-10-01T07:46:57Z</time>
      </trkpt>
      <trkpt lat="59.365489623393" lon="18.014627835697">
        <ele>27.4</ele>
        <time>2019-10-01T07:47:04Z</time>
      </trkpt>
      <trkpt lat="59.365303629032" lon="18.014927823898">
        <ele>27.6</ele>
        <time>2019-10-01T07:47:09Z</time>
      </trkpt>
      <trkpt lat="59.365093075704" lon="18.015039722263">
        <ele>27.8</ele>
        <time>2019-10-01T07:47:13Z</time>
      </trkpt>
      <trkpt lat="59.364986877031" lon="18.015004853559">
        <ele>27.4</ele>
        <time>2019-10-01T07:47:15Z</time>
      </trkpt>
      <trkpt lat="59.364858214866" lon="18.0148572483">
        <ele>26.8</ele>
        <time>2019-10-01T07:47:18Z</time>
      </trkpt>
      <trkpt lat="59.364619665992" lon="18.014717941122">
        <ele>27.8</ele>
        <time>2019-10-01T07:47:23Z</time>
      </trkpt>
      <trkpt lat="59.364463762652" lon="18.014745014659">
        <ele>29</ele>
        <time>2019-10-01T07:47:28Z</time>
      </trkpt>
      <trkpt lat="59.364428893948" lon="18.015040308996">
        <ele>30</ele>
        <time>2019-10-01T07:47:32Z</time>
      </trkpt>
      <trkpt lat="59.364349852631" lon="18.015343901414">
        <ele>31.2</ele>
        <time>2019-10-01T07:47:36Z</time>
      </trkpt>
      <trkpt lat="59.364304338914" lon="18.015696863223">
        <ele>32.2</ele>
        <time>2019-10-01T07:47:41Z</time>
      </trkpt>
      <trkpt lat="59.364262932328" lon="18.015880426833">
        <ele>32.4</ele>
        <time>2019-10-01T07:47:43Z</time>
      </trkpt>
      <trkpt lat="59.364153297076" lon="18.016307987552">
        <ele>33.4</ele>
        <time>2019-10-01T07:47:48Z</time>
      </trkpt>
      <trkpt lat="59.364074842492" lon="18.016502531451">
        <ele>33.6</ele>
        <time>2019-10-01T07:47:51Z</time>
      </trkpt>
      <trkpt lat="59.363973840597" lon="18.016539411811">
        <ele>34.4</ele>
        <time>2019-10-01T07:47:55Z</time>
      </trkpt>
      <trkpt lat="59.363976522805" lon="18.016598671844">
        <ele>34.8</ele>
        <time>2019-10-01T07:47:57Z</time>
      </trkpt>
      <trkpt lat="59.363775692481" lon="18.016885751919">
        <ele>35</ele>
        <time>2019-10-01T07:48:02Z</time>
      </trkpt>
      <trkpt lat="59.363805448226" lon="18.016668325433">
        <ele>35.6</ele>
        <time>2019-10-01T07:48:05Z</time>
      </trkpt>
      <trkpt lat="59.363790444625" lon="18.016577465637">
        <ele>35.8</ele>
        <time>2019-10-01T07:48:06Z</time>
      </trkpt>
      <trkpt lat="59.363746774926" lon="18.016474871181">
        <ele>36</ele>
        <time>2019-10-01T07:48:07Z</time>
      </trkpt>
      <trkpt lat="59.363628841593" lon="18.01631066976">
        <ele>36.6</ele>
        <time>2019-10-01T07:48:10Z</time>
      </trkpt>
      <trkpt lat="59.363522559101" lon="18.016258199066">
        <ele>37.6</ele>
        <time>2019-10-01T07:48:13Z</time>
      </trkpt>
      <trkpt lat="59.36351090826" lon="18.01622517438">
        <ele>37.8</ele>
        <time>2019-10-01T07:48:14Z</time>
      </trkpt>
      <trkpt lat="59.363350227237" lon="18.015980339081">
        <ele>38.2</ele>
        <time>2019-10-01T07:48:21Z</time>
      </trkpt>
      <trkpt lat="59.363077480211" lon="18.016083101175">
        <ele>38.4</ele>
        <time>2019-10-01T07:48:27Z</time>
      </trkpt>
      <trkpt lat="59.362560233162" lon="18.016335144908">
        <ele>38.8</ele>
        <time>2019-10-01T07:48:40Z</time>
      </trkpt>
      <trkpt lat="59.362256556925" lon="18.01663504929">
        <ele>40.2</ele>
        <time>2019-10-01T07:48:48Z</time>
      </trkpt>
      <trkpt lat="59.362150106795" lon="18.01668198793">
        <ele>41.6</ele>
        <time>2019-10-01T07:48:51Z</time>
      </trkpt>
      <trkpt lat="59.361888423877" lon="18.01675239589">
        <ele>42</ele>
        <time>2019-10-01T07:48:58Z</time>
      </trkpt>
      <trkpt lat="59.361764874671" lon="18.01691835751">
        <ele>40.6</ele>
        <time>2019-10-01T07:49:01Z</time>
      </trkpt>
      <trkpt lat="59.361715337642" lon="18.016952890938">
        <ele>40.2</ele>
        <time>2019-10-01T07:49:02Z</time>
      </trkpt>
      <trkpt lat="59.361654736505" lon="18.016988178737">
        <ele>39.6</ele>
        <time>2019-10-01T07:49:03Z</time>
      </trkpt>
      <trkpt lat="59.361593380997" lon="18.017005780727">
        <ele>39</ele>
        <time>2019-10-01T07:49:04Z</time>
      </trkpt>
      <trkpt lat="59.361446697747" lon="18.017044588924">
        <ele>37.8</ele>
        <time>2019-10-01T07:49:06Z</time>
      </trkpt>
      <trkpt lat="59.36121510585" lon="18.01711533216">
        <ele>36.6</ele>
        <time>2019-10-01T07:49:09Z</time>
      </trkpt>
      <trkpt lat="59.360940347168" lon="18.017140394041">
        <ele>35.4</ele>
        <time>2019-10-01T07:49:12Z</time>
      </trkpt>
      <trkpt lat="59.360538267425" lon="18.017305349833">
        <ele>34</ele>
        <time>2019-10-01T07:49:17Z</time>
      </trkpt>
      <trkpt lat="59.360381442076" lon="18.017340972908">
        <ele>32.8</ele>
        <time>2019-10-01T07:49:19Z</time>
      </trkpt>
      <trkpt lat="59.360159237907" lon="18.017370896291">
        <ele>31.8</ele>
        <time>2019-10-01T07:49:22Z</time>
      </trkpt>
      <trkpt lat="59.359840390431" lon="18.017407525194">
        <ele>31.6</ele>
        <time>2019-10-01T07:49:26Z</time>
      </trkpt>
      <trkpt lat="59.359490194649" lon="18.017372153576">
        <ele>30.2</ele>
        <time>2019-10-01T07:49:30Z</time>
      </trkpt>
      <trkpt lat="59.358886697849" lon="18.017176100935">
        <ele>30</ele>
        <time>2019-10-01T07:49:36Z</time>
      </trkpt>
      <trkpt lat="59.358342880177" lon="18.017084067673">
        <ele>29.8</ele>
        <time>2019-10-01T07:49:42Z</time>
      </trkpt>
      <trkpt lat="59.357863770773" lon="18.017054647204">
        <ele>28.8</ele>
        <time>2019-10-01T07:49:48Z</time>
      </trkpt>
      <trkpt lat="59.357638381482" lon="18.017029585323">
        <ele>27.8</ele>
        <time>2019-10-01T07:49:51Z</time>
      </trkpt>
      <trkpt lat="59.35716078082" lon="18.017000164854">
        <ele>27.2</ele>
        <time>2019-10-01T07:49:58Z</time>
      </trkpt>
      <trkpt lat="59.356658621191" lon="18.016863120789">
        <ele>26.8</ele>
        <time>2019-10-01T07:50:07Z</time>
      </trkpt>
      <trkpt lat="59.356610592904" lon="18.016861276771">
        <ele>26.8</ele>
        <time>2019-10-01T07:50:08Z</time>
      </trkpt>
      <trkpt lat="59.356118994469" lon="18.016782906006">
        <ele>26.6</ele>
        <time>2019-10-01T07:50:17Z</time>
      </trkpt>
      <trkpt lat="59.355953284306" lon="18.016751222424">
        <ele>26.6</ele>
        <time>2019-10-01T07:50:20Z</time>
      </trkpt>
      <trkpt lat="59.355870554953" lon="18.016698835549">
        <ele>26.4</ele>
        <time>2019-10-01T07:50:22Z</time>
      </trkpt>
      <trkpt lat="59.355811127282" lon="18.016510661894">
        <ele>26</ele>
        <time>2019-10-01T07:50:24Z</time>
      </trkpt>
      <trkpt lat="59.355709957749" lon="18.016259623989">
        <ele>26</ele>
        <time>2019-10-01T07:50:26Z</time>
      </trkpt>
      <trkpt lat="59.355317684829" lon="18.015685715296">
        <ele>26.8</ele>
        <time>2019-10-01T07:50:31Z</time>
      </trkpt>
      <trkpt lat="59.355171085398" lon="18.015681524346">
        <ele>26.4</ele>
        <time>2019-10-01T07:50:33Z</time>
      </trkpt>
      <trkpt lat="59.35508877514" lon="18.015596112785">
        <ele>25.6</ele>
        <time>2019-10-01T07:50:35Z</time>
      </trkpt>
      <trkpt lat="59.355046278907" lon="18.015516149459">
        <ele>25.4</ele>
        <time>2019-10-01T07:50:36Z</time>
      </trkpt>
      <trkpt lat="59.354961034984" lon="18.015409783148">
        <ele>25</ele>
        <time>2019-10-01T07:50:38Z</time>
      </trkpt>
      <trkpt lat="59.35476439561" lon="18.015250862324">
        <ele>24.6</ele>
        <time>2019-10-01T07:50:42Z</time>
      </trkpt>
      <trkpt lat="59.354750397837" lon="18.01520593534">
        <ele>24.4</ele>
        <time>2019-10-01T07:50:43Z</time>
      </trkpt>
      <trkpt lat="59.354708488337" lon="18.014974343443">
        <ele>23.6</ele>
        <time>2019-10-01T07:50:45Z</time>
      </trkpt>
      <trkpt lat="59.354742854127" lon="18.01489999599">
        <ele>23</ele>
        <time>2019-10-01T07:50:46Z</time>
      </trkpt>
      <trkpt lat="59.355095313022" lon="18.014234054035">
        <ele>22</ele>
        <time>2019-10-01T07:50:54Z</time>
      </trkpt>
      <trkpt lat="59.355164128421" lon="18.014059039963">
        <ele>21.8</ele>
        <time>2019-10-01T07:50:56Z</time>
      </trkpt>
      <trkpt lat="59.355432097764" lon="18.013451016937">
        <ele>21.4</ele>
        <time>2019-10-01T07:51:04Z</time>
      </trkpt>
      <trkpt lat="59.35554307412" lon="18.012362124308">
        <ele>21.8</ele>
        <time>2019-10-01T07:51:11Z</time>
      </trkpt>
      <trkpt lat="59.355566291983" lon="18.012245280622">
        <ele>21.6</ele>
        <time>2019-10-01T07:51:12Z</time>
      </trkpt>
      <trkpt lat="59.355712220862" lon="18.011730380505">
        <ele>23</ele>
        <time>2019-10-01T07:51:17Z</time>
      </trkpt>
      <trkpt lat="59.355699899469" lon="18.011515468589">
        <ele>23.2</ele>
        <time>2019-10-01T07:51:24Z</time>
      </trkpt>
      <trkpt lat="59.355623624179" lon="18.011627534592">
        <ele>23.6</ele>
        <time>2019-10-01T07:51:26Z</time>
      </trkpt>
      <trkpt lat="59.355526645596" lon="18.011839931938">
        <ele>24.2</ele>
        <time>2019-10-01T07:51:29Z</time>
      </trkpt>
      <trkpt lat="59.355482053888" lon="18.011989632672">
        <ele>24.4</ele>
        <time>2019-10-01T07:51:31Z</time>
      </trkpt>
      <trkpt lat="59.355364204374" lon="18.012421300522">
        <ele>24.8</ele>
        <time>2019-10-01T07:51:36Z</time>
      </trkpt>
      <trkpt lat="59.355282816125" lon="18.012512327956">
        <ele>25</ele>
        <time>2019-10-01T07:51:38Z</time>
      </trkpt>
      <trkpt lat="59.355124565853" lon="18.012571839446">
        <ele>25</ele>
        <time>2019-10-01T07:51:41Z</time>
      </trkpt>
      <trkpt lat="59.354910492127" lon="18.012758755816">
        <ele>25.2</ele>
        <time>2019-10-01T07:51:45Z</time>
      </trkpt>
      <trkpt lat="59.354692143632" lon="18.012908205093">
        <ele>25.6</ele>
        <time>2019-10-01T07:51:49Z</time>
      </trkpt>
      <trkpt lat="59.35454478983" lon="18.012934608078">
        <ele>26.4</ele>
        <time>2019-10-01T07:51:52Z</time>
      </trkpt>
      <trkpt lat="59.354509921126" lon="18.012933434612">
        <ele>27.8</ele>
        <time>2019-10-01T07:51:55Z</time>
      </trkpt>
      <trkpt lat="59.354475639155" lon="18.01286906162">
        <ele>28.2</ele>
        <time>2019-10-01T07:51:57Z</time>
      </trkpt>
      <trkpt lat="59.354287214043" lon="18.012752134115">
        <ele>28.8</ele>
        <time>2019-10-01T07:52:00Z</time>
      </trkpt>
      <trkpt lat="59.354105997365" lon="18.012773927055">
        <ele>29.2</ele>
        <time>2019-10-01T07:52:03Z</time>
      </trkpt>
      <trkpt lat="59.354013964103" lon="18.01268885077">
        <ele>29.6</ele>
        <time>2019-10-01T07:52:05Z</time>
      </trkpt>
      <trkpt lat="59.353860323876" lon="18.01241560083">
        <ele>30</ele>
        <time>2019-10-01T07:52:09Z</time>
      </trkpt>
      <trkpt lat="59.353763512931" lon="18.012218458542">
        <ele>31.2</ele>
        <time>2019-10-01T07:52:12Z</time>
      </trkpt>
      <trkpt lat="59.35375772942" lon="18.012154337007">
        <ele>31.4</ele>
        <time>2019-10-01T07:52:13Z</time>
      </trkpt>
      <trkpt lat="59.353784132405" lon="18.011977814193">
        <ele>32.4</ele>
        <time>2019-10-01T07:52:16Z</time>
      </trkpt>
      <trkpt lat="59.353855630012" lon="18.011877399031">
        <ele>33.4</ele>
        <time>2019-10-01T07:52:19Z</time>
      </trkpt>
      <trkpt lat="59.353864766283" lon="18.011788299434">
        <ele>33.8</ele>
        <time>2019-10-01T07:52:21Z</time>
      </trkpt>
      <trkpt lat="59.353743312552" lon="18.01146676975">
        <ele>34.6</ele>
        <time>2019-10-01T07:52:27Z</time>
      </trkpt>
      <trkpt lat="59.35358087133" lon="18.011147922274">
        <ele>35.8</ele>
        <time>2019-10-01T07:52:33Z</time>
      </trkpt>
      <trkpt lat="59.353427566379" lon="18.011481521894">
        <ele>36.2</ele>
        <time>2019-10-01T07:52:39Z</time>
      </trkpt>
      <trkpt lat="59.353353889478" lon="18.011583697255">
        <ele>36.2</ele>
        <time>2019-10-01T07:52:41Z</time>
      </trkpt>
      <trkpt lat="59.353245846787" lon="18.011581182685">
        <ele>36</ele>
        <time>2019-10-01T07:52:43Z</time>
      </trkpt>
      <trkpt lat="59.353017440012" lon="18.011504153024">
        <ele>35.6</ele>
        <time>2019-10-01T07:52:47Z</time>
      </trkpt>
      <trkpt lat="59.352847035985" lon="18.011452688158">
        <ele>35.2</ele>
        <time>2019-10-01T07:52:50Z</time>
      </trkpt>
      <trkpt lat="59.352693647215" lon="18.0113452322">
        <ele>34.8</ele>
        <time>2019-10-01T07:52:53Z</time>
      </trkpt>
      <trkpt lat="59.352098699953" lon="18.011220928623">
        <ele>34.8</ele>
        <time>2019-10-01T07:53:02Z</time>
      </trkpt>
      <trkpt lat="59.352043379413" lon="18.01120609266">
        <ele>35</ele>
        <time>2019-10-01T07:53:03Z</time>
      </trkpt>
      <trkpt lat="59.351867191875" lon="18.011199135683">
        <ele>36.2</ele>
        <time>2019-10-01T07:53:06Z</time>
      </trkpt>
      <trkpt lat="59.351655297443" lon="18.011233333835">
        <ele>37.2</ele>
        <time>2019-10-01T07:53:09Z</time>
      </trkpt>
      <trkpt lat="59.35152479126" lon="18.011191172878">
        <ele>36.8</ele>
        <time>2019-10-01T07:53:11Z</time>
      </trkpt>
      <trkpt lat="59.351119023481" lon="18.011383034569">
        <ele>36.4</ele>
        <time>2019-10-01T07:53:18Z</time>
      </trkpt>
      <trkpt lat="59.350707220734" lon="18.011929115354">
        <ele>35</ele>
        <time>2019-10-01T07:53:27Z</time>
      </trkpt>
      <trkpt lat="59.350507312419" lon="18.012075547147">
        <ele>34</ele>
        <time>2019-10-01T07:53:30Z</time>
      </trkpt>
      <trkpt lat="59.350343613912" lon="18.0121415127">
        <ele>32.8</ele>
        <time>2019-10-01T07:53:32Z</time>
      </trkpt>
      <trkpt lat="59.350095258215" lon="18.012157270672">
        <ele>31.6</ele>
        <time>2019-10-01T07:53:35Z</time>
      </trkpt>
      <trkpt lat="59.349954526114" lon="18.012107398367">
        <ele>31</ele>
        <time>2019-10-01T07:53:37Z</time>
      </trkpt>
      <trkpt lat="59.349879927204" lon="18.012067416704">
        <ele>30.6</ele>
        <time>2019-10-01T07:53:38Z</time>
      </trkpt>
      <trkpt lat="59.349809686882" lon="18.012007067024">
        <ele>30</ele>
        <time>2019-10-01T07:53:39Z</time>
      </trkpt>
      <trkpt lat="59.349739698017" lon="18.011941604385">
        <ele>29.2</ele>
        <time>2019-10-01T07:53:40Z</time>
      </trkpt>
      <trkpt lat="59.349629392213" lon="18.011763991924">
        <ele>28</ele>
        <time>2019-10-01T07:53:42Z</time>
      </trkpt>
      <trkpt lat="59.349461838032" lon="18.011386135872">
        <ele>27.8</ele>
        <time>2019-10-01T07:53:46Z</time>
      </trkpt>
      <trkpt lat="59.349226306642" lon="18.011075754115">
        <ele>28.4</ele>
        <time>2019-10-01T07:53:50Z</time>
      </trkpt>
      <trkpt lat="59.349082892333" lon="18.010706112325">
        <ele>27.6</ele>
        <time>2019-10-01T07:53:54Z</time>
      </trkpt>
      <trkpt lat="59.348828082573" lon="18.009801537677">
        <ele>27.8</ele>
        <time>2019-10-01T07:54:02Z</time>
      </trkpt>
      <trkpt lat="59.348798745923" lon="18.009547817564">
        <ele>27.6</ele>
        <time>2019-10-01T07:54:04Z</time>
      </trkpt>
      <trkpt lat="59.348828417849" lon="18.009343802118">
        <ele>27.6</ele>
        <time>2019-10-01T07:54:06Z</time>
      </trkpt>
      <trkpt lat="59.348851635712" lon="18.0091407925">
        <ele>27</ele>
        <time>2019-10-01T07:54:08Z</time>
      </trkpt>
      <trkpt lat="59.348780305743" lon="18.008836697168">
        <ele>26</ele>
        <time>2019-10-01T07:54:11Z</time>
      </trkpt>
      <trkpt lat="59.34875373512" lon="18.008752039978">
        <ele>25.8</ele>
        <time>2019-10-01T07:54:12Z</time>
      </trkpt>
      <trkpt lat="59.348563046895" lon="18.008434952701">
        <ele>25.6</ele>
        <time>2019-10-01T07:54:17Z</time>
      </trkpt>
      <trkpt lat="59.348457351136" lon="18.008620527967">
        <ele>26.2</ele>
        <time>2019-10-01T07:54:21Z</time>
      </trkpt>
      <trkpt lat="59.348120314937" lon="18.009088154168">
        <ele>26.2</ele>
        <time>2019-10-01T07:54:27Z</time>
      </trkpt>
      <trkpt lat="59.347587896649" lon="18.009279261488">
        <ele>24.8</ele>
        <time>2019-10-01T07:54:34Z</time>
      </trkpt>
      <trkpt lat="59.347510950807" lon="18.009251685037">
        <ele>24.4</ele>
        <time>2019-10-01T07:54:35Z</time>
      </trkpt>
      <trkpt lat="59.3472718152" lon="18.009134673713">
        <ele>23.6</ele>
        <time>2019-10-01T07:54:38Z</time>
      </trkpt>
      <trkpt lat="59.346974173931" lon="18.008918001598">
        <ele>22.6</ele>
        <time>2019-10-01T07:54:42Z</time>
      </trkpt>
      <trkpt lat="59.346670413875" lon="18.008679285086">
        <ele>23.8</ele>
        <time>2019-10-01T07:54:46Z</time>
      </trkpt>
      <trkpt lat="59.346302783741" lon="18.008397569427">
        <ele>22</ele>
        <time>2019-10-01T07:54:51Z</time>
      </trkpt>
      <trkpt lat="59.346087033635" lon="18.008234625291">
        <ele>20.8</ele>
        <time>2019-10-01T07:54:54Z</time>
      </trkpt>
      <trkpt lat="59.345523267041" lon="18.007803627993">
        <ele>20.2</ele>
        <time>2019-10-01T07:55:02Z</time>
      </trkpt>
      <trkpt lat="59.345039966687" lon="18.007452007288">
        <ele>19.6</ele>
        <time>2019-10-01T07:55:09Z</time>
      </trkpt>
      <trkpt lat="59.34480083108" lon="18.007361985682">
        <ele>19.2</ele>
        <time>2019-10-01T07:55:13Z</time>
      </trkpt>
      <trkpt lat="59.344696560244" lon="18.007346814443">
        <ele>19.4</ele>
        <time>2019-10-01T07:55:15Z</time>
      </trkpt>
      <trkpt lat="59.344479385215" lon="18.007430633443">
        <ele>19.4</ele>
        <time>2019-10-01T07:55:19Z</time>
      </trkpt>
      <trkpt lat="59.344374276189" lon="18.007446726691">
        <ele>19</ele>
        <time>2019-10-01T07:55:21Z</time>
      </trkpt>
      <trkpt lat="59.344248044775" lon="18.007489642019">
        <ele>18</ele>
        <time>2019-10-01T07:55:23Z</time>
      </trkpt>
      <trkpt lat="59.344056853636" lon="18.007608245904">
        <ele>17.2</ele>
        <time>2019-10-01T07:55:26Z</time>
      </trkpt>
      <trkpt lat="59.343799864582" lon="18.007932206339">
        <ele>18.2</ele>
        <time>2019-10-01T07:55:31Z</time>
      </trkpt>
      <trkpt lat="59.343426870032" lon="18.008840971937">
        <ele>17.8</ele>
        <time>2019-10-01T07:55:41Z</time>
      </trkpt>
      <trkpt lat="59.343279097135" lon="18.009301808799">
        <ele>19.2</ele>
        <time>2019-10-01T07:55:48Z</time>
      </trkpt>
      <trkpt lat="59.343248587019" lon="18.0093838676">
        <ele>19.8</ele>
        <time>2019-10-01T07:55:51Z</time>
      </trkpt>
      <trkpt lat="59.343021772805" lon="18.00945511375">
        <ele>20.2</ele>
        <time>2019-10-01T07:55:57Z</time>
      </trkpt>
      <trkpt lat="59.342573676431" lon="18.009414712992">
        <ele>20.8</ele>
        <time>2019-10-01T07:56:05Z</time>
      </trkpt>
      <trkpt lat="59.342483403368" lon="18.009480343269">
        <ele>22</ele>
        <time>2019-10-01T07:56:07Z</time>
      </trkpt>
      <trkpt lat="59.342381144188" lon="18.009617135877">
        <ele>22.8</ele>
        <time>2019-10-01T07:56:09Z</time>
      </trkpt>
      <trkpt lat="59.342344766742" lon="18.009685113086">
        <ele>23</ele>
        <time>2019-10-01T07:56:10Z</time>
      </trkpt>
      <trkpt lat="59.34231559773" lon="18.009757113607">
        <ele>23</ele>
        <time>2019-10-01T07:56:11Z</time>
      </trkpt>
      <trkpt lat="59.342220546984" lon="18.009982251441">
        <ele>23.2</ele>
        <time>2019-10-01T07:56:14Z</time>
      </trkpt>
      <trkpt lat="59.3418822535" lon="18.01050871858">
        <ele>23.6</ele>
        <time>2019-10-01T07:56:22Z</time>
      </trkpt>
      <trkpt lat="59.341489310028" lon="18.011161584771">
        <ele>22.4</ele>
        <time>2019-10-01T07:56:31Z</time>
      </trkpt>
      <trkpt lat="59.341285378401" lon="18.012150313695">
        <ele>22.4</ele>
        <time>2019-10-01T07:56:42Z</time>
      </trkpt>
      <trkpt lat="59.341017995791" lon="18.012773005046">
        <ele>22.4</ele>
        <time>2019-10-01T07:56:52Z</time>
      </trkpt>
      <trkpt lat="59.340692107519" lon="18.01274333312">
        <ele>24</ele>
        <time>2019-10-01T07:56:58Z</time>
      </trkpt>
      <trkpt lat="59.340583561914" lon="18.012783650059">
        <ele>24.4</ele>
        <time>2019-10-01T07:56:59Z</time>
      </trkpt>
      <trkpt lat="59.340399160114" lon="18.012758252902">
        <ele>24.2</ele>
        <time>2019-10-01T07:57:02Z</time>
      </trkpt>
      <trkpt lat="59.340290363052" lon="18.012854644752">
        <ele>23.4</ele>
        <time>2019-10-01T07:57:04Z</time>
      </trkpt>
      <trkpt lat="59.340235629245" lon="18.012969812058">
        <ele>23</ele>
        <time>2019-10-01T07:57:05Z</time>
      </trkpt>
      <trkpt lat="59.340202436921" lon="18.01308363826">
        <ele>22.6</ele>
        <time>2019-10-01T07:57:06Z</time>
      </trkpt>
      <trkpt lat="59.340139740309" lon="18.01345076548">
        <ele>22</ele>
        <time>2019-10-01T07:57:09Z</time>
      </trkpt>
      <trkpt lat="59.340115432799" lon="18.013587138993">
        <ele>21.6</ele>
        <time>2019-10-01T07:57:10Z</time>
      </trkpt>
      <trkpt lat="59.340020046777" lon="18.013992990591">
        <ele>20.6</ele>
        <time>2019-10-01T07:57:13Z</time>
      </trkpt>
      <trkpt lat="59.339893647725" lon="18.014379982914">
        <ele>19.6</ele>
        <time>2019-10-01T07:57:16Z</time>
      </trkpt>
      <trkpt lat="59.339844026877" lon="18.014492468012">
        <ele>19.4</ele>
        <time>2019-10-01T07:57:17Z</time>
      </trkpt>
      <trkpt lat="59.339642442182" lon="18.014896391773">
        <ele>19.8</ele>
        <time>2019-10-01T07:57:21Z</time>
      </trkpt>
      <trkpt lat="59.33953615969" lon="18.015035866589">
        <ele>20.8</ele>
        <time>2019-10-01T07:57:23Z</time>
      </trkpt>
      <trkpt lat="59.339430966845" lon="18.015186573151">
        <ele>22.2</ele>
        <time>2019-10-01T07:57:25Z</time>
      </trkpt>
      <trkpt lat="59.339402300747" lon="18.015290843987">
        <ele>22.6</ele>
        <time>2019-10-01T07:57:26Z</time>
      </trkpt>
      <trkpt lat="59.339339855592" lon="18.015329568365">
        <ele>23.2</ele>
        <time>2019-10-01T07:57:28Z</time>
      </trkpt>
      <trkpt lat="59.339301131214" lon="18.015219681656">
        <ele>24.4</ele>
        <time>2019-10-01T07:57:31Z</time>
      </trkpt>
      <trkpt lat="59.339297107902" lon="18.015127732213">
        <ele>25.6</ele>
        <time>2019-10-01T07:57:33Z</time>
      </trkpt>
      <trkpt lat="59.339269447632" lon="18.01498968232">
        <ele>26.8</ele>
        <time>2019-10-01T07:57:36Z</time>
      </trkpt>
      <trkpt lat="59.339213707997" lon="18.014765801771">
        <ele>27.8</ele>
        <time>2019-10-01T07:57:40Z</time>
      </trkpt>
      <trkpt lat="59.339138438535" lon="18.014550806036">
        <ele>29.2</ele>
        <time>2019-10-01T07:57:44Z</time>
      </trkpt>
      <trkpt lat="59.339015308424" lon="18.014270347662">
        <ele>30.2</ele>
        <time>2019-10-01T07:57:50Z</time>
      </trkpt>
      <trkpt lat="59.338808862227" lon="18.013840607649">
        <ele>31.4</ele>
        <time>2019-10-01T07:57:58Z</time>
      </trkpt>
      <trkpt lat="59.338678188406" lon="18.013414052758">
        <ele>32</ele>
        <time>2019-10-01T07:58:04Z</time>
      </trkpt>
      <trkpt lat="59.338670644696" lon="18.013341633142">
        <ele>32.6</ele>
        <time>2019-10-01T07:58:05Z</time>
      </trkpt>
      <trkpt lat="59.338625466255" lon="18.013135019307">
        <ele>33.8</ele>
        <time>2019-10-01T07:58:07Z</time>
      </trkpt>
      <trkpt lat="59.33861917983" lon="18.01301490668">
        <ele>35</ele>
        <time>2019-10-01T07:58:09Z</time>
      </trkpt>
      <trkpt lat="59.338596464881" lon="18.012755738332">
        <ele>35.4</ele>
        <time>2019-10-01T07:58:13Z</time>
      </trkpt>
      <trkpt lat="59.338417762773" lon="18.01264610308">
        <ele>35.4</ele>
        <time>2019-10-01T07:58:18Z</time>
      </trkpt>
      <trkpt lat="59.338273342636" lon="18.012667560744">
        <ele>36.2</ele>
        <time>2019-10-01T07:58:21Z</time>
      </trkpt>
      <trkpt lat="59.338051389924" lon="18.012671919332">
        <ele>36.4</ele>
        <time>2019-10-01T07:58:26Z</time>
      </trkpt>
      <trkpt lat="59.337868832142" lon="18.012689605141">
        <ele>36.6</ele>
        <time>2019-10-01T07:58:30Z</time>
      </trkpt>
      <trkpt lat="59.337608993242" lon="18.012816758564">
        <ele>36.2</ele>
        <time>2019-10-01T07:58:36Z</time>
      </trkpt>
      <trkpt lat="59.337362146287" lon="18.013104509191">
        <ele>37.2</ele>
        <time>2019-10-01T07:58:44Z</time>
      </trkpt>
      <trkpt lat="59.337180259057" lon="18.013259490522">
        <ele>38.4</ele>
        <time>2019-10-01T07:58:50Z</time>
      </trkpt>
      <trkpt lat="59.337104402862" lon="18.013385135203">
        <ele>38.6</ele>
        <time>2019-10-01T07:58:53Z</time>
      </trkpt>
      <trkpt lat="59.336967442616" lon="18.013582780405">
        <ele>37.4</ele>
        <time>2019-10-01T07:58:57Z</time>
      </trkpt>
      <trkpt lat="59.336902734348" lon="18.013693337666">
        <ele>36.6</ele>
        <time>2019-10-01T07:58:59Z</time>
      </trkpt>
      <trkpt lat="59.33686652454" lon="18.013763326531">
        <ele>36</ele>
        <time>2019-10-01T07:59:00Z</time>
      </trkpt>
      <trkpt lat="59.336801480996" lon="18.01381118718">
        <ele>35</ele>
        <time>2019-10-01T07:59:02Z</time>
      </trkpt>
      <trkpt lat="59.336762421342" lon="18.013808840248">
        <ele>34.8</ele>
        <time>2019-10-01T07:59:03Z</time>
      </trkpt>
      <trkpt lat="59.336598555197" lon="18.014012268961">
        <ele>33.6</ele>
        <time>2019-10-01T07:59:07Z</time>
      </trkpt>
      <trkpt lat="59.336356485925" lon="18.014463466638">
        <ele>32.8</ele>
        <time>2019-10-01T07:59:11Z</time>
      </trkpt>
      <trkpt lat="59.336210054132" lon="18.014528761639">
        <ele>33</ele>
        <time>2019-10-01T07:59:13Z</time>
      </trkpt>
      <trkpt lat="59.335994387845" lon="18.014435722549">
        <ele>32.6</ele>
        <time>2019-10-01T07:59:16Z</time>
      </trkpt>
      <trkpt lat="59.335872598838" lon="18.014324913831">
        <ele>31.6</ele>
        <time>2019-10-01T07:59:18Z</time>
      </trkpt>
      <trkpt lat="59.335799760127" lon="18.014287530557">
        <ele>31</ele>
        <time>2019-10-01T07:59:19Z</time>
      </trkpt>
      <trkpt lat="59.335711582539" lon="18.014107822621">
        <ele>30</ele>
        <time>2019-10-01T07:59:21Z</time>
      </trkpt>
      <trkpt lat="59.335629439919" lon="18.013949237073">
        <ele>28.6</ele>
        <time>2019-10-01T07:59:23Z</time>
      </trkpt>
      <trkpt lat="59.335586524591" lon="18.01387405143">
        <ele>28</ele>
        <time>2019-10-01T07:59:24Z</time>
      </trkpt>
      <trkpt lat="59.335542687254" lon="18.013799620158">
        <ele>27.4</ele>
        <time>2019-10-01T07:59:25Z</time>
      </trkpt>
      <trkpt lat="59.335439841341" lon="18.013605914449">
        <ele>26</ele>
        <time>2019-10-01T07:59:28Z</time>
      </trkpt>
      <trkpt lat="59.335376474177" lon="18.013450514023">
        <ele>25.4</ele>
        <time>2019-10-01T07:59:32Z</time>
      </trkpt>
    </trkseg>
  </trk>
</gpx>